Terminal Aerodrome Forecast
Issued by NWS

Home | Current Version | Previous Version | Text Only | Print | Product List | Glossary On
Versions: 1 2 3 4 5 6 7 8 9 10 11 12
000
FTUS45 KABQ 210500
TAFLVS
TAF
KLVS 210525Z 2106/2206 05007KT P6SM SCT100
     FM211400 19009KT P6SM FEW100
     FM211900 22014G20KT P6SM VCSH SCT080
     FM220200 21007KT P6SM BKN080
     FM220400 34006KT P6SM SCT080=

USA.gov is the U.S. government's official web portal to all federal, state and local government web resources and services.